LPA weather

Gran Canaria Airport
Gran Canaria Island, Canary Islands, Spain

Public forecast

Using degrees Celsius for public forecast. Weather courtesy of forecast.io.

METAR (pilot weather report)

Retrieved 2019/04/23 15:40 UTC (12 minutes ago):

GCLP 231540Z 33017G30KT 280V050 9999 FEW020 BKN030 21/15 Q1014 WS ALL RWY NOSIG

TAF (pilot weather forecast)

Retrieved 2019/04/23 15:27 UTC (25 minutes ago):

TAF GCLP 231400Z 2315/2415 35018KT 9999 SCT035 TX23/2414Z TN16/2405Z PROB30 2315/2317 17008KT TEMPO 2315/2318 35018G28KT PROB30 TEMPO 2315/2319 RA BECMG 2400/2402 35008KT